sensor_id;sensor_type;location;lat;lon;timestamp;P1;durP1;ratioP1;P2;durP2;ratioP2
80334;SDS011;69653;52.674;13.574;2023-07-16T00:02:29;4.85;;;2.03;;
80334;SDS011;69653;52.674;13.574;2023-07-16T00:05:01;5.38;;;2.33;;
80334;SDS011;69653;52.674;13.574;2023-07-16T00:10:22;5.25;;;2.33;;
80334;SDS011;69653;52.674;13.574;2023-07-16T00:12:50;7.35;;;2.90;;
80334;SDS011;69653;52.674;13.574;2023-07-16T00:15:22;5.65;;;2.67;;
80334;SDS011;69653;52.674;13.574;2023-07-16T00:17:50;5.35;;;2.35;;
80334;SDS011;69653;52.674;13.574;2023-07-16T00:20:18;4.57;;;2.50;;
80334;SDS011;69653;52.674;13.574;2023-07-16T00:22:46;4.22;;;2.40;;
80334;SDS011;69653;52.674;13.574;2023-07-16T00:25:13;4.63;;;2.33;;
80334;SDS011;69653;52.674;13.574;2023-07-16T00:27:40;4.43;;;2.50;;
80334;SDS011;69653;52.674;13.574;2023-07-16T00:30:09;4.70;;;2.28;;
80334;SDS011;69653;52.674;13.574;2023-07-16T00:32:39;5.32;;;2.63;;
80334;SDS011;69653;52.674;13.574;2023-07-16T00:35:06;5.07;;;2.70;;
80334;SDS011;69653;52.674;13.574;2023-07-16T00:37:33;10.95;;;5.18;;
80334;SDS011;69653;52.674;13.574;2023-07-16T00:40:01;7.93;;;4.28;;
80334;SDS011;69653;52.674;13.574;2023-07-16T00:42:30;6.13;;;3.22;;
80334;SDS011;69653;52.674;13.574;2023-07-16T00:44:57;5.95;;;2.53;;
80334;SDS011;69653;52.674;13.574;2023-07-16T00:47:24;4.90;;;2.92;;
80334;SDS011;69653;52.674;13.574;2023-07-16T00:49:52;5.65;;;2.70;;
80334;SDS011;69653;52.674;13.574;2023-07-16T00:52:31;6.50;;;2.60;;
80334;SDS011;69653;52.674;13.574;2023-07-16T00:55:00;4.47;;;2.80;;
80334;SDS011;69653;52.674;13.574;2023-07-16T00:57:28;7.28;;;2.92;;
80334;SDS011;69653;52.674;13.574;2023-07-16T00:59:59;4.47;;;2.55;;
80334;SDS011;69653;52.674;13.574;2023-07-16T01:02:26;5.40;;;3.05;;
80334;SDS011;69653;52.674;13.574;2023-07-16T01:04:53;5.45;;;2.78;;
80334;SDS011;69653;52.674;13.574;2023-07-16T01:07:20;4.70;;;2.72;;
80334;SDS011;69653;52.674;13.574;2023-07-16T01:09:51;5.25;;;2.85;;
80334;SDS011;69653;52.674;13.574;2023-07-16T01:12:22;5.53;;;2.90;;
80334;SDS011;69653;52.674;13.574;2023-07-16T01:14:52;6.93;;;3.72;;
80334;SDS011;69653;52.674;13.574;2023-07-16T01:17:42;5.68;;;2.70;;
80334;SDS011;69653;52.674;13.574;2023-07-16T01:20:11;6.57;;;3.33;;
80334;SDS011;69653;52.674;13.574;2023-07-16T01:28:38;5.75;;;2.83;;
80334;SDS011;69653;52.674;13.574;2023-07-16T01:31:35;5.30;;;2.90;;
80334;SDS011;69653;52.674;13.574;2023-07-16T01:34:03;5.97;;;3.28;;
80334;SDS011;69653;52.674;13.574;2023-07-16T01:36:36;7.25;;;3.38;;
80334;SDS011;69653;52.674;13.574;2023-07-16T01:39:05;6.82;;;3.05;;
80334;SDS011;69653;52.674;13.574;2023-07-16T01:41:32;5.20;;;3.00;;
80334;SDS011;69653;52.674;13.574;2023-07-16T01:44:01;5.50;;;3.28;;
80334;SDS011;69653;52.674;13.574;2023-07-16T01:46:31;5.45;;;2.80;;
80334;SDS011;69653;52.674;13.574;2023-07-16T01:48:59;5.82;;;2.83;;
80334;SDS011;69653;52.674;13.574;2023-07-16T01:51:26;5.43;;;2.65;;
80334;SDS011;69653;52.674;13.574;2023-07-16T01:53:54;6.97;;;2.97;;
80334;SDS011;69653;52.674;13.574;2023-07-16T01:56:20;5.38;;;3.03;;
80334;SDS011;69653;52.674;13.574;2023-07-16T01:58:47;7.90;;;2.88;;
80334;SDS011;69653;52.674;13.574;2023-07-16T02:01:15;5.60;;;3.15;;
80334;SDS011;69653;52.674;13.574;2023-07-16T02:03:42;6.22;;;3.10;;
80334;SDS011;69653;52.674;13.574;2023-07-16T02:06:09;7.75;;;4.15;;
80334;SDS011;69653;52.674;13.574;2023-07-16T02:08:38;5.47;;;2.90;;
80334;SDS011;69653;52.674;13.574;2023-07-16T02:11:07;4.82;;;2.60;;
80334;SDS011;69653;52.674;13.574;2023-07-16T02:13:34;5.28;;;2.85;;
80334;SDS011;69653;52.674;13.574;2023-07-16T02:16:01;5.20;;;2.83;;
80334;SDS011;69653;52.674;13.574;2023-07-16T02:18:31;5.15;;;2.67;;
80334;SDS011;69653;52.674;13.574;2023-07-16T02:21:02;5.18;;;3.15;;
80334;SDS011;69653;52.674;13.574;2023-07-16T02:23:29;5.20;;;2.92;;
80334;SDS011;69653;52.674;13.574;2023-07-16T02:25:55;5.40;;;3.22;;
80334;SDS011;69653;52.674;13.574;2023-07-16T02:28:24;4.80;;;2.90;;
80334;SDS011;69653;52.674;13.574;2023-07-16T02:30:51;5.68;;;3.00;;
80334;SDS011;69653;52.674;13.574;2023-07-16T02:33:18;4.90;;;2.85;;
80334;SDS011;69653;52.674;13.574;2023-07-16T02:35:49;5.15;;;2.88;;
80334;SDS011;69653;52.674;13.574;2023-07-16T02:38:19;5.72;;;2.95;;
80334;SDS011;69653;52.674;13.574;2023-07-16T02:40:49;5.05;;;3.05;;
80334;SDS011;69653;52.674;13.574;2023-07-16T02:43:16;6.32;;;2.90;;
80334;SDS011;69653;52.674;13.574;2023-07-16T02:45:45;6.63;;;3.47;;
80334;SDS011;69653;52.674;13.574;2023-07-16T02:48:13;8.18;;;2.97;;
80334;SDS011;69653;52.674;13.574;2023-07-16T02:50:43;6.00;;;3.55;;
80334;SDS011;69653;52.674;13.574;2023-07-16T02:53:13;6.32;;;3.80;;
80334;SDS011;69653;52.674;13.574;2023-07-16T02:55:45;6.32;;;3.20;;
80334;SDS011;69653;52.674;13.574;2023-07-16T02:58:12;5.53;;;3.10;;
80334;SDS011;69653;52.674;13.574;2023-07-16T03:00:41;5.68;;;3.65;;
80334;SDS011;69653;52.674;13.574;2023-07-16T03:03:15;7.25;;;3.53;;
80334;SDS011;69653;52.674;13.574;2023-07-16T03:05:43;6.60;;;3.30;;
80334;SDS011;69653;52.674;13.574;2023-07-16T03:08:15;6.00;;;3.85;;
80334;SDS011;69653;52.674;13.574;2023-07-16T03:10:43;8.82;;;3.83;;
80334;SDS011;69653;52.674;13.574;2023-07-16T03:13:09;7.18;;;3.47;;
80334;SDS011;69653;52.674;13.574;2023-07-16T03:15:39;6.22;;;3.47;;
80334;SDS011;69653;52.674;13.574;2023-07-16T03:18:11;7.38;;;3.60;;
80334;SDS011;69653;52.674;13.574;2023-07-16T03:20:39;5.70;;;3.78;;
80334;SDS011;69653;52.674;13.574;2023-07-16T03:23:12;6.05;;;3.15;;
80334;SDS011;69653;52.674;13.574;2023-07-16T03:25:39;6.55;;;3.38;;
80334;SDS011;69653;52.674;13.574;2023-07-16T03:28:07;5.43;;;3.13;;
80334;SDS011;69653;52.674;13.574;2023-07-16T03:30:36;6.90;;;3.40;;
80334;SDS011;69653;52.674;13.574;2023-07-16T03:33:04;5.80;;;3.17;;
80334;SDS011;69653;52.674;13.574;2023-07-16T03:35:31;6.25;;;3.47;;
80334;SDS011;69653;52.674;13.574;2023-07-16T03:38:04;7.10;;;3.28;;
80334;SDS011;69653;52.674;13.574;2023-07-16T03:40:35;6.05;;;3.25;;
80334;SDS011;69653;52.674;13.574;2023-07-16T03:43:01;5.70;;;3.50;;
80334;SDS011;69653;52.674;13.574;2023-07-16T03:45:28;6.85;;;3.50;;
80334;SDS011;69653;52.674;13.574;2023-07-16T03:47:56;6.00;;;3.17;;
80334;SDS011;69653;52.674;13.574;2023-07-16T03:50:27;5.70;;;3.33;;
80334;SDS011;69653;52.674;13.574;2023-07-16T03:53:01;6.20;;;3.67;;
80334;SDS011;69653;52.674;13.574;2023-07-16T03:55:34;5.97;;;2.95;;
80334;SDS011;69653;52.674;13.574;2023-07-16T03:58:09;5.85;;;3.60;;
80334;SDS011;69653;52.674;13.574;2023-07-16T04:00:40;6.53;;;3.45;;
80334;SDS011;69653;52.674;13.574;2023-07-16T04:03:10;5.95;;;3.47;;
80334;SDS011;69653;52.674;13.574;2023-07-16T04:05:36;7.05;;;3.35;;
80334;SDS011;69653;52.674;13.574;2023-07-16T04:08:03;6.90;;;3.63;;
80334;SDS011;69653;52.674;13.574;2023-07-16T04:10:31;7.60;;;3.38;;
80334;SDS011;69653;52.674;13.574;2023-07-16T04:12:57;7.28;;;3.20;;
80334;SDS011;69653;52.674;13.574;2023-07-16T04:15:25;6.57;;;3.88;;
80334;SDS011;69653;52.674;13.574;2023-07-16T04:20:22;6.15;;;3.50;;
80334;SDS011;69653;52.674;13.574;2023-07-16T04:22:48;6.07;;;3.67;;
80334;SDS011;69653;52.674;13.574;2023-07-16T04:25:15;6.53;;;3.70;;
80334;SDS011;69653;52.674;13.574;2023-07-16T04:27:45;5.57;;;3.45;;
80334;SDS011;69653;52.674;13.574;2023-07-16T04:30:11;9.60;;;3.55;;
80334;SDS011;69653;52.674;13.574;2023-07-16T04:32:38;7.20;;;3.50;;
80334;SDS011;69653;52.674;13.574;2023-07-16T04:35:05;7.53;;;3.50;;
80334;SDS011;69653;52.674;13.574;2023-07-16T04:37:35;5.72;;;3.08;;
80334;SDS011;69653;52.674;13.574;2023-07-16T04:40:01;6.67;;;3.93;;
80334;SDS011;69653;52.674;13.574;2023-07-16T04:42:26;6.37;;;3.50;;
80334;SDS011;69653;52.674;13.574;2023-07-16T04:44:51;5.55;;;2.90;;
80334;SDS011;69653;52.674;13.574;2023-07-16T04:47:17;5.10;;;2.90;;
80334;SDS011;69653;52.674;13.574;2023-07-16T04:49:42;5.93;;;3.03;;
80334;SDS011;69653;52.674;13.574;2023-07-16T04:52:07;8.13;;;3.45;;
80334;SDS011;69653;52.674;13.574;2023-07-16T04:54:36;6.03;;;3.17;;
80334;SDS011;69653;52.674;13.574;2023-07-16T04:57:03;5.50;;;3.28;;
80334;SDS011;69653;52.674;13.574;2023-07-16T04:59:28;6.20;;;2.85;;
80334;SDS011;69653;52.674;13.574;2023-07-16T05:01:54;6.10;;;3.20;;
80334;SDS011;69653;52.674;13.574;2023-07-16T05:04:19;6.60;;;2.73;;
80334;SDS011;69653;52.674;13.574;2023-07-16T05:06:44;4.67;;;2.60;;
80334;SDS011;69653;52.674;13.574;2023-07-16T05:09:10;6.53;;;2.80;;
80334;SDS011;69653;52.674;13.574;2023-07-16T05:11:35;5.87;;;2.73;;
80334;SDS011;69653;52.674;13.574;2023-07-16T05:14:02;4.88;;;2.70;;
80334;SDS011;69653;52.674;13.574;2023-07-16T05:16:27;5.80;;;2.80;;
80334;SDS011;69653;52.674;13.574;2023-07-16T05:18:53;6.60;;;3.00;;
80334;SDS011;69653;52.674;13.574;2023-07-16T05:21:18;6.33;;;3.20;;
80334;SDS011;69653;52.674;13.574;2023-07-16T05:23:43;5.03;;;2.60;;
80334;SDS011;69653;52.674;13.574;2023-07-16T05:26:08;6.57;;;3.17;;
80334;SDS011;69653;52.674;13.574;2023-07-16T05:28:34;6.93;;;2.90;;
80334;SDS011;69653;52.674;13.574;2023-07-16T05:31:01;5.55;;;2.90;;
80334;SDS011;69653;52.674;13.574;2023-07-16T05:33:27;5.05;;;2.60;;
80334;SDS011;69653;52.674;13.574;2023-07-16T05:35:53;5.07;;;2.92;;
80334;SDS011;69653;52.674;13.574;2023-07-16T05:38:18;5.50;;;2.53;;
80334;SDS011;69653;52.674;13.574;2023-07-16T05:40:44;6.33;;;2.70;;
80334;SDS011;69653;52.674;13.574;2023-07-16T05:43:09;6.18;;;2.30;;
80334;SDS011;69653;52.674;13.574;2023-07-16T05:45:35;4.97;;;2.47;;
80334;SDS011;69653;52.674;13.574;2023-07-16T05:48:00;6.67;;;2.37;;
80334;SDS011;69653;52.674;13.574;2023-07-16T05:50:25;5.63;;;2.30;;
80334;SDS011;69653;52.674;13.574;2023-07-16T05:52:51;4.60;;;2.40;;
80334;SDS011;69653;52.674;13.574;2023-07-16T05:55:17;4.93;;;2.42;;
80334;SDS011;69653;52.674;13.574;2023-07-16T05:57:42;5.88;;;1.92;;
80334;SDS011;69653;52.674;13.574;2023-07-16T06:00:07;4.30;;;2.10;;
80334;SDS011;69653;52.674;13.574;2023-07-16T06:02:34;4.53;;;2.10;;
80334;SDS011;69653;52.674;13.574;2023-07-16T06:04:59;6.10;;;2.22;;
80334;SDS011;69653;52.674;13.574;2023-07-16T06:07:25;5.63;;;2.67;;
80334;SDS011;69653;52.674;13.574;2023-07-16T06:09:50;5.72;;;2.50;;
80334;SDS011;69653;52.674;13.574;2023-07-16T06:12:15;4.73;;;2.40;;
80334;SDS011;69653;52.674;13.574;2023-07-16T06:14:41;5.47;;;2.40;;
80334;SDS011;69653;52.674;13.574;2023-07-16T06:17:06;3.63;;;2.00;;
80334;SDS011;69653;52.674;13.574;2023-07-16T06:19:31;4.83;;;2.80;;
80334;SDS011;69653;52.674;13.574;2023-07-16T06:21:57;4.30;;;2.20;;
80334;SDS011;69653;52.674;13.574;2023-07-16T06:24:22;5.13;;;2.50;;
80334;SDS011;69653;52.674;13.574;2023-07-16T06:26:47;5.33;;;2.40;;
80334;SDS011;69653;52.674;13.574;2023-07-16T06:29:13;5.30;;;2.50;;
80334;SDS011;69653;52.674;13.574;2023-07-16T06:31:38;5.18;;;2.33;;
80334;SDS011;69653;52.674;13.574;2023-07-16T06:34:04;5.93;;;2.50;;
80334;SDS011;69653;52.674;13.574;2023-07-16T06:36:29;5.68;;;2.63;;
80334;SDS011;69653;52.674;13.574;2023-07-16T06:38:54;5.70;;;2.30;;
80334;SDS011;69653;52.674;13.574;2023-07-16T06:41:20;4.38;;;2.50;;
80334;SDS011;69653;52.674;13.574;2023-07-16T06:43:45;4.47;;;2.30;;
80334;SDS011;69653;52.674;13.574;2023-07-16T06:46:10;5.23;;;2.83;;
80334;SDS011;69653;52.674;13.574;2023-07-16T06:48:36;4.60;;;2.53;;
80334;SDS011;69653;52.674;13.574;2023-07-16T06:51:01;5.83;;;2.70;;
80334;SDS011;69653;52.674;13.574;2023-07-16T06:53:26;4.33;;;2.43;;
80334;SDS011;69653;52.674;13.574;2023-07-16T06:55:52;5.07;;;2.50;;
80334;SDS011;69653;52.674;13.574;2023-07-16T06:58:17;5.10;;;2.53;;
80334;SDS011;69653;52.674;13.574;2023-07-16T07:00:43;5.00;;;2.63;;
80334;SDS011;69653;52.674;13.574;2023-07-16T07:03:08;5.32;;;2.65;;
80334;SDS011;69653;52.674;13.574;2023-07-16T07:05:33;6.13;;;2.67;;
80334;SDS011;69653;52.674;13.574;2023-07-16T07:08:01;4.68;;;2.53;;
80334;SDS011;69653;52.674;13.574;2023-07-16T07:10:26;4.75;;;2.50;;
80334;SDS011;69653;52.674;13.574;2023-07-16T07:12:52;5.53;;;2.50;;
80334;SDS011;69653;52.674;13.574;2023-07-16T07:15:17;5.03;;;2.47;;
80334;SDS011;69653;52.674;13.574;2023-07-16T07:17:43;6.60;;;2.63;;
80334;SDS011;69653;52.674;13.574;2023-07-16T07:20:11;6.78;;;2.47;;
80334;SDS011;69653;52.674;13.574;2023-07-16T07:22:37;5.28;;;2.50;;
80334;SDS011;69653;52.674;13.574;2023-07-16T07:25:03;5.25;;;2.47;;
80334;SDS011;69653;52.674;13.574;2023-07-16T07:27:29;6.43;;;2.17;;
80334;SDS011;69653;52.674;13.574;2023-07-16T07:29:54;6.00;;;2.30;;
80334;SDS011;69653;52.674;13.574;2023-07-16T07:32:20;5.20;;;2.33;;
80334;SDS011;69653;52.674;13.574;2023-07-16T07:34:47;4.15;;;2.35;;
80334;SDS011;69653;52.674;13.574;2023-07-16T07:37:12;4.93;;;2.42;;
80334;SDS011;69653;52.674;13.574;2023-07-16T07:39:38;4.45;;;2.20;;
80334;SDS011;69653;52.674;13.574;2023-07-16T07:42:03;4.33;;;2.30;;
80334;SDS011;69653;52.674;13.574;2023-07-16T07:44:29;3.90;;;2.00;;
80334;SDS011;69653;52.674;13.574;2023-07-16T07:46:54;4.80;;;2.20;;
80334;SDS011;69653;52.674;13.574;2023-07-16T07:49:19;4.93;;;2.53;;
80334;SDS011;69653;52.674;13.574;2023-07-16T07:51:45;5.93;;;2.65;;
80334;SDS011;69653;52.674;13.574;2023-07-16T07:54:12;5.35;;;2.38;;
80334;SDS011;69653;52.674;13.574;2023-07-16T07:56:37;4.53;;;2.40;;
80334;SDS011;69653;52.674;13.574;2023-07-16T07:59:03;5.57;;;2.47;;
80334;SDS011;69653;52.674;13.574;2023-07-16T08:01:29;5.23;;;2.57;;
80334;SDS011;69653;52.674;13.574;2023-07-16T08:03:55;4.30;;;2.22;;
80334;SDS011;69653;52.674;13.574;2023-07-16T08:06:21;5.30;;;2.57;;
80334;SDS011;69653;52.674;13.574;2023-07-16T08:08:46;4.60;;;2.23;;
80334;SDS011;69653;52.674;13.574;2023-07-16T08:11:11;4.50;;;1.93;;
80334;SDS011;69653;52.674;13.574;2023-07-16T08:13:36;4.67;;;2.00;;
80334;SDS011;69653;52.674;13.574;2023-07-16T08:16:02;3.80;;;1.90;;
80334;SDS011;69653;52.674;13.574;2023-07-16T08:18:27;5.07;;;1.98;;
80334;SDS011;69653;52.674;13.574;2023-07-16T08:20:53;4.13;;;2.03;;
80334;SDS011;69653;52.674;13.574;2023-07-16T08:23:18;5.40;;;2.30;;
80334;SDS011;69653;52.674;13.574;2023-07-16T08:25:43;4.10;;;1.83;;
80334;SDS011;69653;52.674;13.574;2023-07-16T08:28:09;4.13;;;1.70;;
80334;SDS011;69653;52.674;13.574;2023-07-16T08:30:35;3.92;;;1.70;;
80334;SDS011;69653;52.674;13.574;2023-07-16T08:33:00;4.35;;;1.70;;
80334;SDS011;69653;52.674;13.574;2023-07-16T08:35:26;4.50;;;1.60;;
80334;SDS011;69653;52.674;13.574;2023-07-16T08:37:51;4.13;;;1.90;;
80334;SDS011;69653;52.674;13.574;2023-07-16T08:40:16;4.30;;;1.70;;
80334;SDS011;69653;52.674;13.574;2023-07-16T08:42:44;4.97;;;2.10;;
80334;SDS011;69653;52.674;13.574;2023-07-16T08:45:10;5.07;;;2.00;;
80334;SDS011;69653;52.674;13.574;2023-07-16T08:47:36;4.70;;;1.92;;
80334;SDS011;69653;52.674;13.574;2023-07-16T08:50:02;5.90;;;1.83;;
80334;SDS011;69653;52.674;13.574;2023-07-16T08:52:28;5.05;;;1.85;;
80334;SDS011;69653;52.674;13.574;2023-07-16T08:54:54;5.10;;;2.00;;
80334;SDS011;69653;52.674;13.574;2023-07-16T08:57:20;4.28;;;1.80;;
80334;SDS011;69653;52.674;13.574;2023-07-16T08:59:49;4.30;;;1.90;;
80334;SDS011;69653;52.674;13.574;2023-07-16T09:02:19;4.60;;;1.60;;
80334;SDS011;69653;52.674;13.574;2023-07-16T09:04:48;4.35;;;1.70;;
80334;SDS011;69653;52.674;13.574;2023-07-16T09:07:16;4.60;;;2.15;;
80334;SDS011;69653;52.674;13.574;2023-07-16T09:09:41;4.57;;;2.22;;
80334;SDS011;69653;52.674;13.574;2023-07-16T09:12:11;3.95;;;1.60;;
80334;SDS011;69653;52.674;13.574;2023-07-16T09:14:37;6.05;;;2.00;;
80334;SDS011;69653;52.674;13.574;2023-07-16T09:17:02;4.70;;;2.00;;
80334;SDS011;69653;52.674;13.574;2023-07-16T09:19:31;3.80;;;1.80;;
80334;SDS011;69653;52.674;13.574;2023-07-16T09:21:57;5.15;;;1.70;;
80334;SDS011;69653;52.674;13.574;2023-07-16T09:24:23;5.82;;;1.98;;
80334;SDS011;69653;52.674;13.574;2023-07-16T09:26:49;3.45;;;1.55;;
80334;SDS011;69653;52.674;13.574;2023-07-16T09:29:18;4.63;;;1.92;;
80334;SDS011;69653;52.674;13.574;2023-07-16T09:31:54;4.38;;;1.85;;
80334;SDS011;69653;52.674;13.574;2023-07-16T09:34:26;3.90;;;2.00;;
80334;SDS011;69653;52.674;13.574;2023-07-16T09:36:52;3.70;;;1.70;;
80334;SDS011;69653;52.674;13.574;2023-07-16T09:39:18;3.40;;;1.63;;
80334;SDS011;69653;52.674;13.574;2023-07-16T09:41:47;4.68;;;1.92;;
80334;SDS011;69653;52.674;13.574;2023-07-16T09:44:13;4.10;;;1.58;;
80334;SDS011;69653;52.674;13.574;2023-07-16T09:46:39;3.00;;;1.60;;
80334;SDS011;69653;52.674;13.574;2023-07-16T09:49:05;5.80;;;2.03;;
80334;SDS011;69653;52.674;13.574;2023-07-16T09:51:31;3.70;;;1.60;;
80334;SDS011;69653;52.674;13.574;2023-07-16T09:53:59;4.40;;;1.60;;
80334;SDS011;69653;52.674;13.574;2023-07-16T09:56:26;3.65;;;1.50;;
80334;SDS011;69653;52.674;13.574;2023-07-16T09:59:09;4.50;;;1.83;;
80334;SDS011;69653;52.674;13.574;2023-07-16T10:01:38;3.90;;;1.52;;
80334;SDS011;69653;52.674;13.574;2023-07-16T10:06:52;5.05;;;1.80;;
80334;SDS011;69653;52.674;13.574;2023-07-16T10:14:39;4.18;;;1.75;;
80334;SDS011;69653;52.674;13.574;2023-07-16T10:17:11;2.95;;;1.33;;
80334;SDS011;69653;52.674;13.574;2023-07-16T10:22:38;4.82;;;1.63;;
80334;SDS011;69653;52.674;13.574;2023-07-16T10:25:08;3.60;;;1.40;;
80334;SDS011;69653;52.674;13.574;2023-07-16T10:27:35;7.97;;;1.83;;
80334;SDS011;69653;52.674;13.574;2023-07-16T10:30:01;5.72;;;1.50;;
80334;SDS011;69653;52.674;13.574;2023-07-16T10:32:30;3.42;;;1.52;;
80334;SDS011;69653;52.674;13.574;2023-07-16T10:34:57;4.40;;;1.77;;
80334;SDS011;69653;52.674;13.574;2023-07-16T10:37:23;4.50;;;1.90;;
80334;SDS011;69653;52.674;13.574;2023-07-16T10:39:53;3.30;;;1.33;;
80334;SDS011;69653;52.674;13.574;2023-07-16T10:42:20;3.83;;;1.63;;
80334;SDS011;69653;52.674;13.574;2023-07-16T10:44:49;4.22;;;1.60;;
80334;SDS011;69653;52.674;13.574;2023-07-16T10:47:22;4.75;;;1.70;;
80334;SDS011;69653;52.674;13.574;2023-07-16T10:49:49;4.70;;;1.52;;
80334;SDS011;69653;52.674;13.574;2023-07-16T10:52:17;4.25;;;1.70;;
80334;SDS011;69653;52.674;13.574;2023-07-16T10:54:42;4.32;;;1.42;;
80334;SDS011;69653;52.674;13.574;2023-07-16T10:57:08;4.00;;;1.27;;
80334;SDS011;69653;52.674;13.574;2023-07-16T10:59:34;5.07;;;1.45;;
80334;SDS011;69653;52.674;13.574;2023-07-16T11:02:02;4.15;;;1.60;;
80334;SDS011;69653;52.674;13.574;2023-07-16T11:04:32;3.30;;;1.20;;
80334;SDS011;69653;52.674;13.574;2023-07-16T11:06:58;4.65;;;1.52;;
80334;SDS011;69653;52.674;13.574;2023-07-16T11:09:24;5.73;;;1.63;;
80334;SDS011;69653;52.674;13.574;2023-07-16T11:11:49;6.03;;;1.53;;
80334;SDS011;69653;52.674;13.574;2023-07-16T11:14:14;4.53;;;1.60;;
80334;SDS011;69653;52.674;13.574;2023-07-16T11:16:40;4.30;;;1.53;;
80334;SDS011;69653;52.674;13.574;2023-07-16T11:19:05;4.87;;;1.60;;
80334;SDS011;69653;52.674;13.574;2023-07-16T11:21:34;4.57;;;1.70;;
80334;SDS011;69653;52.674;13.574;2023-07-16T11:24:07;4.40;;;1.70;;
80334;SDS011;69653;52.674;13.574;2023-07-16T11:26:33;5.30;;;2.00;;
80334;SDS011;69653;52.674;13.574;2023-07-16T11:28:59;3.73;;;1.60;;
80334;SDS011;69653;52.674;13.574;2023-07-16T11:31:24;3.70;;;1.90;;
80334;SDS011;69653;52.674;13.574;2023-07-16T11:33:49;5.07;;;1.77;;
80334;SDS011;69653;52.674;13.574;2023-07-16T11:36:16;4.13;;;1.50;;
80334;SDS011;69653;52.674;13.574;2023-07-16T11:38:42;4.80;;;1.80;;
80334;SDS011;69653;52.674;13.574;2023-07-16T11:41:07;4.90;;;1.70;;
80334;SDS011;69653;52.674;13.574;2023-07-16T11:43:33;5.07;;;1.65;;
80334;SDS011;69653;52.674;13.574;2023-07-16T11:46:05;5.00;;;1.85;;
80334;SDS011;69653;52.674;13.574;2023-07-16T11:48:40;4.40;;;1.90;;
80334;SDS011;69653;52.674;13.574;2023-07-16T11:51:06;4.07;;;1.70;;
80334;SDS011;69653;52.674;13.574;2023-07-16T11:53:31;3.67;;;1.50;;
80334;SDS011;69653;52.674;13.574;2023-07-16T11:55:57;3.45;;;1.50;;
80334;SDS011;69653;52.674;13.574;2023-07-16T11:58:22;5.70;;;1.85;;
80334;SDS011;69653;52.674;13.574;2023-07-16T12:00:47;6.27;;;1.70;;
80334;SDS011;69653;52.674;13.574;2023-07-16T12:03:13;4.17;;;1.60;;
80334;SDS011;69653;52.674;13.574;2023-07-16T12:05:38;5.93;;;1.60;;
80334;SDS011;69653;52.674;13.574;2023-07-16T12:08:04;4.32;;;1.98;;
80334;SDS011;69653;52.674;13.574;2023-07-16T12:10:30;6.75;;;1.88;;
80334;SDS011;69653;52.674;13.574;2023-07-16T12:12:55;3.88;;;1.75;;
80334;SDS011;69653;52.674;13.574;2023-07-16T12:15:20;4.67;;;1.63;;
80334;SDS011;69653;52.674;13.574;2023-07-16T12:17:46;4.43;;;2.07;;
80334;SDS011;69653;52.674;13.574;2023-07-16T12:20:11;4.17;;;1.80;;
80334;SDS011;69653;52.674;13.574;2023-07-16T12:22:36;4.07;;;1.77;;
80334;SDS011;69653;52.674;13.574;2023-07-16T12:25:02;4.80;;;1.73;;
80334;SDS011;69653;52.674;13.574;2023-07-16T12:27:27;3.58;;;1.63;;
80334;SDS011;69653;52.674;13.574;2023-07-16T12:29:53;6.70;;;2.43;;
80334;SDS011;69653;52.674;13.574;2023-07-16T12:32:18;4.13;;;1.60;;
80334;SDS011;69653;52.674;13.574;2023-07-16T12:34:45;6.15;;;2.13;;
80334;SDS011;69653;52.674;13.574;2023-07-16T12:37:10;4.35;;;1.70;;
80334;SDS011;69653;52.674;13.574;2023-07-16T12:39:35;3.97;;;1.60;;
80334;SDS011;69653;52.674;13.574;2023-07-16T12:42:01;6.77;;;1.60;;
80334;SDS011;69653;52.674;13.574;2023-07-16T12:44:26;3.67;;;1.43;;
80334;SDS011;69653;52.674;13.574;2023-07-16T12:46:51;3.90;;;1.50;;
80334;SDS011;69653;52.674;13.574;2023-07-16T12:49:17;6.27;;;1.83;;
80334;SDS011;69653;52.674;13.574;2023-07-16T12:51:43;3.78;;;1.92;;
80334;SDS011;69653;52.674;13.574;2023-07-16T12:54:08;5.00;;;1.60;;
80334;SDS011;69653;52.674;13.574;2023-07-16T12:56:33;4.80;;;1.40;;
80334;SDS011;69653;52.674;13.574;2023-07-16T12:58:59;4.87;;;1.93;;
80334;SDS011;69653;52.674;13.574;2023-07-16T13:01:24;4.23;;;1.50;;
80334;SDS011;69653;52.674;13.574;2023-07-16T13:03:49;9.27;;;2.03;;
80334;SDS011;69653;52.674;13.574;2023-07-16T13:06:15;5.00;;;2.10;;
80334;SDS011;69653;52.674;13.574;2023-07-16T13:08:40;4.67;;;1.60;;
80334;SDS011;69653;52.674;13.574;2023-07-16T13:11:05;5.05;;;1.70;;
80334;SDS011;69653;52.674;13.574;2023-07-16T13:13:31;4.18;;;1.70;;
80334;SDS011;69653;52.674;13.574;2023-07-16T13:15:56;4.10;;;1.57;;
80334;SDS011;69653;52.674;13.574;2023-07-16T13:18:22;4.95;;;1.70;;
80334;SDS011;69653;52.674;13.574;2023-07-16T13:20:47;3.30;;;1.43;;
80334;SDS011;69653;52.674;13.574;2023-07-16T13:23:12;4.90;;;1.83;;
80334;SDS011;69653;52.674;13.574;2023-07-16T13:25:38;4.50;;;1.77;;
80334;SDS011;69653;52.674;13.574;2023-07-16T13:28:07;4.82;;;1.70;;
80334;SDS011;69653;52.674;13.574;2023-07-16T13:30:33;7.28;;;1.90;;
80334;SDS011;69653;52.674;13.574;2023-07-16T13:32:59;5.82;;;1.92;;
80334;SDS011;69653;52.674;13.574;2023-07-16T13:35:24;3.88;;;1.40;;
80334;SDS011;69653;52.674;13.574;2023-07-16T13:37:50;5.88;;;1.80;;
80334;SDS011;69653;52.674;13.574;2023-07-16T13:40:15;5.45;;;1.70;;
80334;SDS011;69653;52.674;13.574;2023-07-16T13:42:41;5.13;;;1.60;;
80334;SDS011;69653;52.674;13.574;2023-07-16T13:45:07;5.03;;;1.60;;
80334;SDS011;69653;52.674;13.574;2023-07-16T13:47:32;5.78;;;1.48;;
80334;SDS011;69653;52.674;13.574;2023-07-16T13:49:58;5.53;;;1.70;;
80334;SDS011;69653;52.674;13.574;2023-07-16T13:52:23;4.27;;;1.70;;
80334;SDS011;69653;52.674;13.574;2023-07-16T13:54:49;4.85;;;1.52;;
80334;SDS011;69653;52.674;13.574;2023-07-16T13:57:14;6.18;;;1.75;;
80334;SDS011;69653;52.674;13.574;2023-07-16T13:59:40;5.30;;;1.63;;
80334;SDS011;69653;52.674;13.574;2023-07-16T14:02:05;5.87;;;1.40;;
80334;SDS011;69653;52.674;13.574;2023-07-16T14:04:31;4.60;;;1.90;;
80334;SDS011;69653;52.674;13.574;2023-07-16T14:06:58;5.63;;;1.88;;
80334;SDS011;69653;52.674;13.574;2023-07-16T14:09:24;6.95;;;1.83;;
80334;SDS011;69653;52.674;13.574;2023-07-16T14:11:49;5.47;;;2.57;;
80334;SDS011;69653;52.674;13.574;2023-07-16T14:14:15;5.70;;;1.80;;
80334;SDS011;69653;52.674;13.574;2023-07-16T14:16:40;3.40;;;1.23;;
80334;SDS011;69653;52.674;13.574;2023-07-16T14:19:06;6.75;;;2.90;;
80334;SDS011;69653;52.674;13.574;2023-07-16T14:21:31;4.40;;;1.90;;
80334;SDS011;69653;52.674;13.574;2023-07-16T14:23:57;5.77;;;1.97;;
80334;SDS011;69653;52.674;13.574;2023-07-16T14:26:23;4.15;;;1.50;;
80334;SDS011;69653;52.674;13.574;2023-07-16T14:28:48;4.27;;;1.50;;
80334;SDS011;69653;52.674;13.574;2023-07-16T14:31:13;4.38;;;1.60;;
80334;SDS011;69653;52.674;13.574;2023-07-16T14:33:39;5.05;;;1.77;;
80334;SDS011;69653;52.674;13.574;2023-07-16T14:36:04;3.50;;;1.40;;
80334;SDS011;69653;52.674;13.574;2023-07-16T14:38:30;4.13;;;1.50;;
80334;SDS011;69653;52.674;13.574;2023-07-16T14:40:55;5.53;;;1.70;;
80334;SDS011;69653;52.674;13.574;2023-07-16T14:43:21;3.78;;;1.33;;
80334;SDS011;69653;52.674;13.574;2023-07-16T14:45:46;3.90;;;1.37;;
80334;SDS011;69653;52.674;13.574;2023-07-16T14:48:11;3.17;;;1.30;;
80334;SDS011;69653;52.674;13.574;2023-07-16T14:50:37;4.70;;;1.50;;
80334;SDS011;69653;52.674;13.574;2023-07-16T14:53:02;4.10;;;1.47;;
80334;SDS011;69653;52.674;13.574;2023-07-16T14:55:29;4.45;;;1.60;;